sensor_id;sensor_type;location;lat;lon;timestamp;temperature;humidity
14409;DHT22;7289;50.706;4.992;2022-08-21T00:00:38;14.60;99.90
14409;DHT22;7289;50.706;4.992;2022-08-21T00:03:11;14.50;99.90
14409;DHT22;7289;50.706;4.992;2022-08-21T00:05:47;14.50;99.90
14409;DHT22;7289;50.706;4.992;2022-08-21T00:08:17;14.50;99.90
14409;DHT22;7289;50.706;4.992;2022-08-21T00:10:46;14.50;99.90
14409;DHT22;7289;50.706;4.992;2022-08-21T00:13:15;14.50;99.90
14409;DHT22;7289;50.706;4.992;2022-08-21T00:15:46;14.50;99.90
14409;DHT22;7289;50.706;4.992;2022-08-21T00:18:15;14.50;99.90
14409;DHT22;7289;50.706;4.992;2022-08-21T00:20:46;14.50;99.90
14409;DHT22;7289;50.706;4.992;2022-08-21T00:23:14;14.40;99.90
14409;DHT22;7289;50.706;4.992;2022-08-21T00:25:44;14.40;99.90
14409;DHT22;7289;50.706;4.992;2022-08-21T00:28:13;14.30;99.90
14409;DHT22;7289;50.706;4.992;2022-08-21T00:30:42;14.30;99.90
14409;DHT22;7289;50.706;4.992;2022-08-21T00:33:12;14.20;99.90
14409;DHT22;7289;50.706;4.992;2022-08-21T00:35:41;14.30;99.90
14409;DHT22;7289;50.706;4.992;2022-08-21T00:38:11;14.20;99.90
14409;DHT22;7289;50.706;4.992;2022-08-21T00:40:42;14.20;99.90
14409;DHT22;7289;50.706;4.992;2022-08-21T00:43:13;14.10;99.90
14409;DHT22;7289;50.706;4.992;2022-08-21T00:45:42;14.10;99.90
14409;DHT22;7289;50.706;4.992;2022-08-21T00:48:11;14.10;99.90
14409;DHT22;7289;50.706;4.992;2022-08-21T00:50:43;14.10;99.90
14409;DHT22;7289;50.706;4.992;2022-08-21T00:53:14;14.00;99.90
14409;DHT22;7289;50.706;4.992;2022-08-21T00:55:42;14.00;99.90
14409;DHT22;7289;50.706;4.992;2022-08-21T00:58:13;14.00;99.90
14409;DHT22;7289;50.706;4.992;2022-08-21T01:00:47;14.00;99.90
14409;DHT22;7289;50.706;4.992;2022-08-21T01:03:18;13.90;99.90
14409;DHT22;7289;50.706;4.992;2022-08-21T01:05:50;13.90;99.90
14409;DHT22;7289;50.706;4.992;2022-08-21T01:08:20;13.90;99.90
14409;DHT22;7289;50.706;4.992;2022-08-21T01:10:51;13.80;99.90
14409;DHT22;7289;50.706;4.992;2022-08-21T01:13:26;13.80;99.90
14409;DHT22;7289;50.706;4.992;2022-08-21T01:15:55;13.80;99.90
14409;DHT22;7289;50.706;4.992;2022-08-21T01:18:25;13.80;99.90
14409;DHT22;7289;50.706;4.992;2022-08-21T01:21:05;13.90;99.90
14409;DHT22;7289;50.706;4.992;2022-08-21T01:23:34;13.90;99.90
14409;DHT22;7289;50.706;4.992;2022-08-21T01:26:04;13.90;99.90
14409;DHT22;7289;50.706;4.992;2022-08-21T01:28:38;13.90;99.90
14409;DHT22;7289;50.706;4.992;2022-08-21T01:31:10;13.80;99.90
14409;DHT22;7289;50.706;4.992;2022-08-21T01:33:40;13.80;99.90
14409;DHT22;7289;50.706;4.992;2022-08-21T01:36:09;13.70;99.90
14409;DHT22;7289;50.706;4.992;2022-08-21T01:38:38;13.60;99.90
14409;DHT22;7289;50.706;4.992;2022-08-21T01:41:06;13.60;99.90
14409;DHT22;7289;50.706;4.992;2022-08-21T01:43:35;13.60;99.90
14409;DHT22;7289;50.706;4.992;2022-08-21T01:46:06;13.50;99.90
14409;DHT22;7289;50.706;4.992;2022-08-21T01:48:35;13.50;99.90
14409;DHT22;7289;50.706;4.992;2022-08-21T01:51:04;13.50;99.90
14409;DHT22;7289;50.706;4.992;2022-08-21T01:53:35;13.50;99.90
14409;DHT22;7289;50.706;4.992;2022-08-21T01:56:05;13.40;99.90
14409;DHT22;7289;50.706;4.992;2022-08-21T01:58:39;13.40;99.90
14409;DHT22;7289;50.706;4.992;2022-08-21T02:01:07;13.40;99.90
14409;DHT22;7289;50.706;4.992;2022-08-21T02:03:37;13.40;99.90
14409;DHT22;7289;50.706;4.992;2022-08-21T02:06:06;13.40;99.90
14409;DHT22;7289;50.706;4.992;2022-08-21T02:08:36;13.40;99.90
14409;DHT22;7289;50.706;4.992;2022-08-21T02:11:05;13.30;99.90
14409;DHT22;7289;50.706;4.992;2022-08-21T02:13:33;13.30;99.90
14409;DHT22;7289;50.706;4.992;2022-08-21T02:16:02;13.30;99.90
14409;DHT22;7289;50.706;4.992;2022-08-21T02:18:30;13.20;99.90
14409;DHT22;7289;50.706;4.992;2022-08-21T02:20:59;13.20;99.90
14409;DHT22;7289;50.706;4.992;2022-08-21T02:23:27;13.20;99.90
14409;DHT22;7289;50.706;4.992;2022-08-21T02:25:58;13.20;99.90
14409;DHT22;7289;50.706;4.992;2022-08-21T02:28:26;13.10;99.90
14409;DHT22;7289;50.706;4.992;2022-08-21T02:30:56;13.10;99.90
14409;DHT22;7289;50.706;4.992;2022-08-21T02:33:25;13.10;99.90
14409;DHT22;7289;50.706;4.992;2022-08-21T02:35:55;13.20;99.90
14409;DHT22;7289;50.706;4.992;2022-08-21T02:38:25;13.20;99.90
14409;DHT22;7289;50.706;4.992;2022-08-21T02:40:54;13.30;99.90
14409;DHT22;7289;50.706;4.992;2022-08-21T02:43:26;13.40;99.90
14409;DHT22;7289;50.706;4.992;2022-08-21T02:45:55;13.30;99.90
14409;DHT22;7289;50.706;4.992;2022-08-21T02:48:26;13.40;99.90
14409;DHT22;7289;50.706;4.992;2022-08-21T02:50:57;13.40;99.90
14409;DHT22;7289;50.706;4.992;2022-08-21T02:53:26;13.40;99.90
14409;DHT22;7289;50.706;4.992;2022-08-21T02:55:57;13.40;99.90
14409;DHT22;7289;50.706;4.992;2022-08-21T02:58:32;13.40;99.90
14409;DHT22;7289;50.706;4.992;2022-08-21T03:01:01;13.40;99.90
14409;DHT22;7289;50.706;4.992;2022-08-21T03:03:29;13.40;99.90
14409;DHT22;7289;50.706;4.992;2022-08-21T03:05:57;13.40;99.90
14409;DHT22;7289;50.706;4.992;2022-08-21T03:08:26;13.40;99.90
14409;DHT22;7289;50.706;4.992;2022-08-21T03:10:54;13.30;99.90
14409;DHT22;7289;50.706;4.992;2022-08-21T03:13:23;13.30;99.90
14409;DHT22;7289;50.706;4.992;2022-08-21T03:15:53;13.30;99.90
14409;DHT22;7289;50.706;4.992;2022-08-21T03:18:24;13.30;99.90
14409;DHT22;7289;50.706;4.992;2022-08-21T03:20:52;13.30;99.90
14409;DHT22;7289;50.706;4.992;2022-08-21T03:23:20;13.30;99.90
14409;DHT22;7289;50.706;4.992;2022-08-21T03:25:50;13.30;99.90
14409;DHT22;7289;50.706;4.992;2022-08-21T03:28:21;13.30;99.90
14409;DHT22;7289;50.706;4.992;2022-08-21T03:30:50;13.30;99.90
14409;DHT22;7289;50.706;4.992;2022-08-21T03:33:20;13.20;99.90
14409;DHT22;7289;50.706;4.992;2022-08-21T03:35:56;13.10;99.90
14409;DHT22;7289;50.706;4.992;2022-08-21T03:38:27;13.10;99.90
14409;DHT22;7289;50.706;4.992;2022-08-21T03:40:55;13.20;99.90
14409;DHT22;7289;50.706;4.992;2022-08-21T03:43:24;13.10;99.90
14409;DHT22;7289;50.706;4.992;2022-08-21T03:45:53;13.20;99.90
14409;DHT22;7289;50.706;4.992;2022-08-21T03:48:23;13.10;99.90
14409;DHT22;7289;50.706;4.992;2022-08-21T03:50:52;13.10;99.90
14409;DHT22;7289;50.706;4.992;2022-08-21T03:53:21;13.10;99.90
14409;DHT22;7289;50.706;4.992;2022-08-21T03:55:50;13.10;99.90
14409;DHT22;7289;50.706;4.992;2022-08-21T03:58:21;13.10;99.90
14409;DHT22;7289;50.706;4.992;2022-08-21T04:00:53;13.10;99.90
14409;DHT22;7289;50.706;4.992;2022-08-21T04:03:24;13.10;99.90
14409;DHT22;7289;50.706;4.992;2022-08-21T04:05:52;13.00;99.90
14409;DHT22;7289;50.706;4.992;2022-08-21T04:08:20;13.00;99.90
14409;DHT22;7289;50.706;4.992;2022-08-21T04:10:51;12.90;99.90
14409;DHT22;7289;50.706;4.992;2022-08-21T04:13:21;12.80;99.90
14409;DHT22;7289;50.706;4.992;2022-08-21T04:15:50;12.80;99.90
14409;DHT22;7289;50.706;4.992;2022-08-21T04:18:18;12.70;99.90
14409;DHT22;7289;50.706;4.992;2022-08-21T04:20:49;12.70;99.90
14409;DHT22;7289;50.706;4.992;2022-08-21T04:23:19;12.70;99.90
14409;DHT22;7289;50.706;4.992;2022-08-21T04:25:51;12.70;99.90
14409;DHT22;7289;50.706;4.992;2022-08-21T04:28:20;12.70;99.90
14409;DHT22;7289;50.706;4.992;2022-08-21T04:30:49;12.60;99.90
14409;DHT22;7289;50.706;4.992;2022-08-21T04:33:19;12.60;99.90
14409;DHT22;7289;50.706;4.992;2022-08-21T04:35:49;12.70;99.90
14409;DHT22;7289;50.706;4.992;2022-08-21T04:38:17;12.70;99.90
14409;DHT22;7289;50.706;4.992;2022-08-21T04:40:47;12.70;99.90
14409;DHT22;7289;50.706;4.992;2022-08-21T04:43:18;12.70;99.90
14409;DHT22;7289;50.706;4.992;2022-08-21T04:45:48;12.70;99.90
14409;DHT22;7289;50.706;4.992;2022-08-21T04:48:18;12.70;99.90
14409;DHT22;7289;50.706;4.992;2022-08-21T04:50:51;12.80;99.90
14409;DHT22;7289;50.706;4.992;2022-08-21T04:53:23;12.80;99.90
14409;DHT22;7289;50.706;4.992;2022-08-21T04:55:54;12.80;99.90
14409;DHT22;7289;50.706;4.992;2022-08-21T04:58:25;12.90;99.90
14409;DHT22;7289;50.706;4.992;2022-08-21T05:00:55;12.90;99.90
14409;DHT22;7289;50.706;4.992;2022-08-21T05:03:24;12.90;99.90
14409;DHT22;7289;50.706;4.992;2022-08-21T05:05:54;12.90;99.90
14409;DHT22;7289;50.706;4.992;2022-08-21T05:08:24;12.90;99.90
14409;DHT22;7289;50.706;4.992;2022-08-21T05:10:53;12.90;99.90
14409;DHT22;7289;50.706;4.992;2022-08-21T05:13:26;13.00;99.90
14409;DHT22;7289;50.706;4.992;2022-08-21T05:15:55;13.10;99.90
14409;DHT22;7289;50.706;4.992;2022-08-21T05:18:24;13.10;99.90
14409;DHT22;7289;50.706;4.992;2022-08-21T05:20:53;13.10;99.90
14409;DHT22;7289;50.706;4.992;2022-08-21T05:23:21;13.20;99.90
14409;DHT22;7289;50.706;4.992;2022-08-21T05:25:50;13.20;99.90
14409;DHT22;7289;50.706;4.992;2022-08-21T05:28:18;13.20;99.90
14409;DHT22;7289;50.706;4.992;2022-08-21T05:30:47;13.30;99.90
14409;DHT22;7289;50.706;4.992;2022-08-21T05:33:15;13.30;99.90
14409;DHT22;7289;50.706;4.992;2022-08-21T05:35:43;13.40;99.90
14409;DHT22;7289;50.706;4.992;2022-08-21T05:38:13;13.50;99.90
14409;DHT22;7289;50.706;4.992;2022-08-21T05:40:45;13.60;99.90
14409;DHT22;7289;50.706;4.992;2022-08-21T05:43:13;13.70;99.90
14409;DHT22;7289;50.706;4.992;2022-08-21T05:45:42;13.70;99.90
14409;DHT22;7289;50.706;4.992;2022-08-21T05:48:12;13.80;99.90
14409;DHT22;7289;50.706;4.992;2022-08-21T05:50:42;13.90;99.90
14409;DHT22;7289;50.706;4.992;2022-08-21T05:53:11;13.90;99.90
14409;DHT22;7289;50.706;4.992;2022-08-21T05:55:41;14.00;99.90
14409;DHT22;7289;50.706;4.992;2022-08-21T05:58:13;14.00;99.90
14409;DHT22;7289;50.706;4.992;2022-08-21T06:00:42;14.10;99.90
14409;DHT22;7289;50.706;4.992;2022-08-21T06:03:12;14.20;99.90
14409;DHT22;7289;50.706;4.992;2022-08-21T06:05:40;14.30;99.90
14409;DHT22;7289;50.706;4.992;2022-08-21T06:08:08;14.40;99.90
14409;DHT22;7289;50.706;4.992;2022-08-21T06:10:37;14.50;99.90
14409;DHT22;7289;50.706;4.992;2022-08-21T06:13:06;14.60;99.90
14409;DHT22;7289;50.706;4.992;2022-08-21T06:15:35;14.80;99.90
14409;DHT22;7289;50.706;4.992;2022-08-21T06:18:04;15.00;99.90
14409;DHT22;7289;50.706;4.992;2022-08-21T06:20:33;15.30;99.90
14409;DHT22;7289;50.706;4.992;2022-08-21T06:23:01;15.50;99.90
14409;DHT22;7289;50.706;4.992;2022-08-21T06:25:30;15.70;99.90
14409;DHT22;7289;50.706;4.992;2022-08-21T06:28:02;15.80;99.90
14409;DHT22;7289;50.706;4.992;2022-08-21T06:30:33;16.00;99.90
14409;DHT22;7289;50.706;4.992;2022-08-21T06:33:02;16.20;99.90
14409;DHT22;7289;50.706;4.992;2022-08-21T06:35:30;16.40;99.90
14409;DHT22;7289;50.706;4.992;2022-08-21T06:37:59;16.50;99.90
14409;DHT22;7289;50.706;4.992;2022-08-21T06:40:28;16.70;99.90
14409;DHT22;7289;50.706;4.992;2022-08-21T06:43:06;16.90;99.90
14409;DHT22;7289;50.706;4.992;2022-08-21T06:45:36;17.10;99.90
14409;DHT22;7289;50.706;4.992;2022-08-21T06:48:05;17.20;99.90
14409;DHT22;7289;50.706;4.992;2022-08-21T06:50:35;17.40;99.90
14409;DHT22;7289;50.706;4.992;2022-08-21T06:53:04;17.60;99.90
14409;DHT22;7289;50.706;4.992;2022-08-21T06:55:33;17.90;99.90
14409;DHT22;7289;50.706;4.992;2022-08-21T06:58:01;18.10;99.90
14409;DHT22;7289;50.706;4.992;2022-08-21T07:00:30;18.20;99.90
14409;DHT22;7289;50.706;4.992;2022-08-21T07:03:00;18.50;99.90
14409;DHT22;7289;50.706;4.992;2022-08-21T07:05:29;18.70;98.90
14409;DHT22;7289;50.706;4.992;2022-08-21T07:07:58;18.80;98.20
14409;DHT22;7289;50.706;4.992;2022-08-21T07:10:27;19.00;97.90
14409;DHT22;7289;50.706;4.992;2022-08-21T07:12:55;19.00;97.70
14409;DHT22;7289;50.706;4.992;2022-08-21T07:15:28;19.10;97.80
14409;DHT22;7289;50.706;4.992;2022-08-21T07:17:59;19.20;97.90
14409;DHT22;7289;50.706;4.992;2022-08-21T07:20:29;19.20;97.40
14409;DHT22;7289;50.706;4.992;2022-08-21T07:23:01;19.30;97.10
14409;DHT22;7289;50.706;4.992;2022-08-21T07:25:29;19.40;97.00
14409;DHT22;7289;50.706;4.992;2022-08-21T07:27:58;19.50;97.30
14409;DHT22;7289;50.706;4.992;2022-08-21T07:30:27;19.60;97.10
14409;DHT22;7289;50.706;4.992;2022-08-21T07:32:55;19.70;97.00
14409;DHT22;7289;50.706;4.992;2022-08-21T07:35:26;19.80;96.70
14409;DHT22;7289;50.706;4.992;2022-08-21T07:37:55;20.00;96.50
14409;DHT22;7289;50.706;4.992;2022-08-21T07:40:23;20.00;96.20
14409;DHT22;7289;50.706;4.992;2022-08-21T07:42:51;20.00;96.50
14409;DHT22;7289;50.706;4.992;2022-08-21T07:45:21;19.90;96.20
14409;DHT22;7289;50.706;4.992;2022-08-21T07:47:51;20.00;96.50
14409;DHT22;7289;50.706;4.992;2022-08-21T07:50:23;20.10;96.20
14409;DHT22;7289;50.706;4.992;2022-08-21T07:52:53;20.30;96.50
14409;DHT22;7289;50.706;4.992;2022-08-21T07:55:22;20.50;95.70
14409;DHT22;7289;50.706;4.992;2022-08-21T07:57:50;20.60;95.30
14409;DHT22;7289;50.706;4.992;2022-08-21T08:00:22;20.80;94.90
14409;DHT22;7289;50.706;4.992;2022-08-21T08:02:52;21.10;94.10
14409;DHT22;7289;50.706;4.992;2022-08-21T08:05:24;21.30;93.70
14409;DHT22;7289;50.706;4.992;2022-08-21T08:07:54;21.50;93.20
14409;DHT22;7289;50.706;4.992;2022-08-21T08:10:23;21.50;92.60
14409;DHT22;7289;50.706;4.992;2022-08-21T08:12:52;21.60;93.20
14409;DHT22;7289;50.706;4.992;2022-08-21T08:15:24;21.60;93.10
14409;DHT22;7289;50.706;4.992;2022-08-21T08:17:53;21.50;93.30
14409;DHT22;7289;50.706;4.992;2022-08-21T08:20:22;21.70;92.80
14409;DHT22;7289;50.706;4.992;2022-08-21T08:22:54;21.80;92.30
14409;DHT22;7289;50.706;4.992;2022-08-21T08:25:24;21.90;92.50
14409;DHT22;7289;50.706;4.992;2022-08-21T08:27:53;22.00;92.20
14409;DHT22;7289;50.706;4.992;2022-08-21T08:30:21;22.10;92.50
14409;DHT22;7289;50.706;4.992;2022-08-21T08:32:50;22.20;92.00
14409;DHT22;7289;50.706;4.992;2022-08-21T08:35:19;22.50;90.80
14409;DHT22;7289;50.706;4.992;2022-08-21T08:37:51;22.70;91.00
14409;DHT22;7289;50.706;4.992;2022-08-21T08:40:27;22.90;90.60
14409;DHT22;7289;50.706;4.992;2022-08-21T08:42:57;23.00;91.10
14409;DHT22;7289;50.706;4.992;2022-08-21T08:45:26;23.10;89.10
14409;DHT22;7289;50.706;4.992;2022-08-21T08:47:57;23.20;88.70
14409;DHT22;7289;50.706;4.992;2022-08-21T08:50:33;23.20;90.20
14409;DHT22;7289;50.706;4.992;2022-08-21T08:53:06;23.20;88.70
14409;DHT22;7289;50.706;4.992;2022-08-21T08:55:38;23.20;87.80
14409;DHT22;7289;50.706;4.992;2022-08-21T08:58:09;23.40;89.30
14409;DHT22;7289;50.706;4.992;2022-08-21T09:00:39;23.70;86.80
14409;DHT22;7289;50.706;4.992;2022-08-21T09:03:08;23.80;87.00
14409;DHT22;7289;50.706;4.992;2022-08-21T09:05:44;23.90;86.00
14409;DHT22;7289;50.706;4.992;2022-08-21T09:08:24;23.80;86.10
14409;DHT22;7289;50.706;4.992;2022-08-21T09:11:00;23.80;85.20
14409;DHT22;7289;50.706;4.992;2022-08-21T09:13:41;23.90;86.40
14409;DHT22;7289;50.706;4.992;2022-08-21T09:16:20;23.90;86.80
14409;DHT22;7289;50.706;4.992;2022-08-21T09:18:58;23.70;86.40
14409;DHT22;7289;50.706;4.992;2022-08-21T09:21:40;23.60;87.20
14409;DHT22;7289;50.706;4.992;2022-08-21T09:24:22;23.70;84.40
14409;DHT22;7289;50.706;4.992;2022-08-21T09:27:00;23.80;85.80
14409;DHT22;7289;50.706;4.992;2022-08-21T09:29:34;23.90;86.50
14409;DHT22;7289;50.706;4.992;2022-08-21T09:32:10;23.90;86.30
14409;DHT22;7289;50.706;4.992;2022-08-21T09:34:56;24.10;85.80
14409;DHT22;7289;50.706;4.992;2022-08-21T09:37:26;24.20;85.70
14409;DHT22;7289;50.706;4.992;2022-08-21T09:39:57;24.30;84.10
14409;DHT22;7289;50.706;4.992;2022-08-21T09:42:29;24.30;83.40
14409;DHT22;7289;50.706;4.992;2022-08-21T09:45:10;24.20;83.30
14409;DHT22;7289;50.706;4.992;2022-08-21T09:47:39;24.30;82.50
14409;DHT22;7289;50.706;4.992;2022-08-21T09:50:10;24.40;81.80
14409;DHT22;7289;50.706;4.992;2022-08-21T09:52:48;24.50;80.90
14409;DHT22;7289;50.706;4.992;2022-08-21T09:55:28;24.70;82.20
14409;DHT22;7289;50.706;4.992;2022-08-21T09:58:18;25.00;80.90
14409;DHT22;7289;50.706;4.992;2022-08-21T10:00:56;25.10;79.30
14409;DHT22;7289;50.706;4.992;2022-08-21T10:03:26;25.20;78.10
14409;DHT22;7289;50.706;4.992;2022-08-21T10:05:57;25.10;78.90
14409;DHT22;7289;50.706;4.992;2022-08-21T10:08:27;24.90;80.30
14409;DHT22;7289;50.706;4.992;2022-08-21T10:11:04;24.80;79.40
14409;DHT22;7289;50.706;4.992;2022-08-21T10:13:44;24.90;80.70
14409;DHT22;7289;50.706;4.992;2022-08-21T10:16:26;24.80;77.20
14409;DHT22;7289;50.706;4.992;2022-08-21T10:19:08;24.90;78.30
14409;DHT22;7289;50.706;4.992;2022-08-21T10:21:56;24.80;79.80
14409;DHT22;7289;50.706;4.992;2022-08-21T10:24:29;25.20;80.20
14409;DHT22;7289;50.706;4.992;2022-08-21T10:27:09;25.80;79.40
14409;DHT22;7289;50.706;4.992;2022-08-21T10:29:48;26.30;77.20
14409;DHT22;7289;50.706;4.992;2022-08-21T10:32:37;26.60;76.10
14409;DHT22;7289;50.706;4.992;2022-08-21T10:35:12;26.90;73.90
14409;DHT22;7289;50.706;4.992;2022-08-21T10:37:50;27.00;75.30
14409;DHT22;7289;50.706;4.992;2022-08-21T10:40:25;27.40;73.90
14409;DHT22;7289;50.706;4.992;2022-08-21T10:43:04;27.30;72.60
14409;DHT22;7289;50.706;4.992;2022-08-21T10:45:52;27.40;72.10
14409;DHT22;7289;50.706;4.992;2022-08-21T10:48:28;27.10;73.40
14409;DHT22;7289;50.706;4.992;2022-08-21T10:51:03;27.00;73.20
14409;DHT22;7289;50.706;4.992;2022-08-21T10:53:55;26.90;73.30
14409;DHT22;7289;50.706;4.992;2022-08-21T10:56:29;26.80;74.60
14409;DHT22;7289;50.706;4.992;2022-08-21T10:59:12;26.90;73.60
14409;DHT22;7289;50.706;4.992;2022-08-21T11:01:49;26.90;73.30
14409;DHT22;7289;50.706;4.992;2022-08-21T11:04:21;27.20;73.70
14409;DHT22;7289;50.706;4.992;2022-08-21T11:07:18;27.40;72.60
14409;DHT22;7289;50.706;4.992;2022-08-21T11:09:49;27.50;73.00
14409;DHT22;7289;50.706;4.992;2022-08-21T11:12:24;27.10;70.70
14409;DHT22;7289;50.706;4.992;2022-08-21T11:15:00;26.80;71.40
14409;DHT22;7289;50.706;4.992;2022-08-21T11:17:36;26.40;72.00
14409;DHT22;7289;50.706;4.992;2022-08-21T11:20:09;26.20;72.60
14409;DHT22;7289;50.706;4.992;2022-08-21T11:22:41;25.90;73.10
14409;DHT22;7289;50.706;4.992;2022-08-21T11:25:19;25.90;73.40
14409;DHT22;7289;50.706;4.992;2022-08-21T11:27:52;25.90;73.70
14409;DHT22;7289;50.706;4.992;2022-08-21T11:30:24;26.10;74.00
14409;DHT22;7289;50.706;4.992;2022-08-21T11:33:10;26.30;74.00
14409;DHT22;7289;50.706;4.992;2022-08-21T11:35:46;26.20;73.90
14409;DHT22;7289;50.706;4.992;2022-08-21T11:38:26;26.00;74.70
14409;DHT22;7289;50.706;4.992;2022-08-21T11:41:20;26.10;75.10
14409;DHT22;7289;50.706;4.992;2022-08-21T11:43:55;26.00;74.60
14409;DHT22;7289;50.706;4.992;2022-08-21T11:46:33;26.00;73.80
14409;DHT22;7289;50.706;4.992;2022-08-21T11:49:32;26.40;75.00
14409;DHT22;7289;50.706;4.992;2022-08-21T11:52:08;26.60;73.10
14409;DHT22;7289;50.706;4.992;2022-08-21T11:54:42;26.70;74.00
14409;DHT22;7289;50.706;4.992;2022-08-21T11:57:17;26.70;72.70
14409;DHT22;7289;50.706;4.992;2022-08-21T11:59:52;26.60;71.60
14409;DHT22;7289;50.706;4.992;2022-08-21T12:02:24;26.90;72.10
14409;DHT22;7289;50.706;4.992;2022-08-21T12:05:00;27.40;70.70
14409;DHT22;7289;50.706;4.992;2022-08-21T12:07:38;27.40;70.10
14409;DHT22;7289;50.706;4.992;2022-08-21T12:10:10;27.10;69.60
14409;DHT22;7289;50.706;4.992;2022-08-21T12:12:40;27.10;69.60
14409;DHT22;7289;50.706;4.992;2022-08-21T12:15:25;27.00;67.70
14409;DHT22;7289;50.706;4.992;2022-08-21T12:17:57;27.00;69.70
14409;DHT22;7289;50.706;4.992;2022-08-21T12:20:40;27.00;69.80
14409;DHT22;7289;50.706;4.992;2022-08-21T12:23:27;27.00;70.90
14409;DHT22;7289;50.706;4.992;2022-08-21T12:26:11;26.70;73.10
14409;DHT22;7289;50.706;4.992;2022-08-21T12:28:41;26.80;72.90
14409;DHT22;7289;50.706;4.992;2022-08-21T12:31:22;27.10;72.50
14409;DHT22;7289;50.706;4.992;2022-08-21T12:33:56;27.20;71.60
14409;DHT22;7289;50.706;4.992;2022-08-21T12:36:35;27.10;72.40
14409;DHT22;7289;50.706;4.992;2022-08-21T12:39:13;26.80;72.50
14409;DHT22;7289;50.706;4.992;2022-08-21T12:41:45;26.40;74.20
14409;DHT22;7289;50.706;4.992;2022-08-21T12:44:17;26.60;74.20
14409;DHT22;7289;50.706;4.992;2022-08-21T12:46:51;26.80;73.90
14409;DHT22;7289;50.706;4.992;2022-08-21T12:49:27;26.70;73.00
14409;DHT22;7289;50.706;4.992;2022-08-21T12:52:02;26.80;74.60
14409;DHT22;7289;50.706;4.992;2022-08-21T12:54:39;26.80;72.20
14409;DHT22;7289;50.706;4.992;2022-08-21T12:57:08;26.60;73.40
14409;DHT22;7289;50.706;4.992;2022-08-21T12:59:38;26.40;72.00
14409;DHT22;7289;50.706;4.992;2022-08-21T13:02:15;26.70;73.30
14409;DHT22;7289;50.706;4.992;2022-08-21T13:04:45;27.00;72.30
14409;DHT22;7289;50.706;4.992;2022-08-21T13:07:21;27.10;72.00
14409;DHT22;7289;50.706;4.992;2022-08-21T13:09:54;26.90;71.40
14409;DHT22;7289;50.706;4.992;2022-08-21T13:12:23;27.00;70.20
14409;DHT22;7289;50.706;4.992;2022-08-21T13:15:02;27.30;71.20
14409;DHT22;7289;50.706;4.992;2022-08-21T13:17:38;27.30;71.40
14409;DHT22;7289;50.706;4.992;2022-08-21T13:20:10;27.30;71.00
14409;DHT22;7289;50.706;4.992;2022-08-21T13:22:47;27.60;71.20
14409;DHT22;7289;50.706;4.992;2022-08-21T13:25:18;27.70;72.20
14409;DHT22;7289;50.706;4.992;2022-08-21T13:27:58;27.70;70.00
14409;DHT22;7289;50.706;4.992;2022-08-21T13:30:28;27.70;70.30
14409;DHT22;7289;50.706;4.992;2022-08-21T13:32:59;27.80;69.40
14409;DHT22;7289;50.706;4.992;2022-08-21T13:35:31;27.80;70.40
14409;DHT22;7289;50.706;4.992;2022-08-21T13:38:05;27.40;69.60
14409;DHT22;7289;50.706;4.992;2022-08-21T13:40:41;27.20;69.80
14409;DHT22;7289;50.706;4.992;2022-08-21T13:43:11;27.30;69.70
14409;DHT22;7289;50.706;4.992;2022-08-21T13:45:49;26.90;69.80
14409;DHT22;7289;50.706;4.992;2022-08-21T13:48:18;27.00;69.90
14409;DHT22;7289;50.706;4.992;2022-08-21T13:50:47;27.10;71.40
14409;DHT22;7289;50.706;4.992;2022-08-21T13:53:29;27.40;71.60
14409;DHT22;7289;50.706;4.992;2022-08-21T13:55:58;27.30;69.70
14409;DHT22;7289;50.706;4.992;2022-08-21T13:58:29;27.50;71.60
14409;DHT22;7289;50.706;4.992;2022-08-21T14:00:59;27.60;70.00
14409;DHT22;7289;50.706;4.992;2022-08-21T14:03:35;27.80;71.30
14409;DHT22;7289;50.706;4.992;2022-08-21T14:06:11;27.90;70.10
14409;DHT22;7289;50.706;4.992;2022-08-21T14:08:48;27.60;70.70
14409;DHT22;7289;50.706;4.992;2022-08-21T14:11:17;27.70;67.70
14409;DHT22;7289;50.706;4.992;2022-08-21T14:13:48;27.60;68.60
14409;DHT22;7289;50.706;4.992;2022-08-21T14:16:20;27.30;68.90
14409;DHT22;7289;50.706;4.992;2022-08-21T14:18:53;27.30;69.20
14409;DHT22;7289;50.706;4.992;2022-08-21T14:21:32;27.50;69.50
14409;DHT22;7289;50.706;4.992;2022-08-21T14:24:09;27.20;68.80
14409;DHT22;7289;50.706;4.992;2022-08-21T14:26:45;27.20;69.30
14409;DHT22;7289;50.706;4.992;2022-08-21T14:29:16;27.30;69.00
14409;DHT22;7289;50.706;4.992;2022-08-21T14:31:50;27.10;68.20
14409;DHT22;7289;50.706;4.992;2022-08-21T14:34:19;27.20;68.40
14409;DHT22;7289;50.706;4.992;2022-08-21T14:36:50;27.20;68.60
14409;DHT22;7289;50.706;4.992;2022-08-21T14:39:19;27.30;69.40
14409;DHT22;7289;50.706;4.992;2022-08-21T14:41:48;27.20;68.00
14409;DHT22;7289;50.706;4.992;2022-08-21T14:44:18;27.10;68.70
14409;DHT22;7289;50.706;4.992;2022-08-21T14:46:46;27.20;68.70
14409;DHT22;7289;50.706;4.992;2022-08-21T14:49:24;27.20;68.60
14409;DHT22;7289;50.706;4.992;2022-08-21T14:51:55;27.40;70.40
14409;DHT22;7289;50.706;4.992;2022-08-21T14:54:28;27.50;68.10
14409;DHT22;7289;50.706;4.992;2022-08-21T14:57:00;27.70;67.70
14409;DHT22;7289;50.706;4.992;2022-08-21T14:59:29;27.80;66.50
14409;DHT22;7289;50.706;4.992;2022-08-21T15:01:59;27.90;67.00
14409;DHT22;7289;50.706;4.992;2022-08-21T15:04:27;27.80;67.00
14409;DHT22;7289;50.706;4.992;2022-08-21T15:06:56;27.90;65.70
14409;DHT22;7289;50.706;4.992;2022-08-21T15:09:24;28.10;66.80
14409;DHT22;7289;50.706;4.992;2022-08-21T15:11:57;28.30;65.30
14409;DHT22;7289;50.706;4.992;2022-08-21T15:14:28;28.60;65.60
14409;DHT22;7289;50.706;4.992;2022-08-21T15:16:58;28.60;64.40
14409;DHT22;7289;50.706;4.992;2022-08-21T15:19:27;27.90;65.40
14409;DHT22;7289;50.706;4.992;2022-08-21T15:21:56;27.90;66.10
14409;DHT22;7289;50.706;4.992;2022-08-21T15:24:25;28.00;67.30
14409;DHT22;7289;50.706;4.992;2022-08-21T15:26:55;28.10;66.80
14409;DHT22;7289;50.706;4.992;2022-08-21T15:29:24;28.00;66.90
14409;DHT22;7289;50.706;4.992;2022-08-21T15:32:03;27.80;66.30
14409;DHT22;7289;50.706;4.992;2022-08-21T15:34:43;27.60;66.00
14409;DHT22;7289;50.706;4.992;2022-08-21T15:37:11;27.30;66.60
14409;DHT22;7289;50.706;4.992;2022-08-21T15:39:39;27.00;66.90
14409;DHT22;7289;50.706;4.992;2022-08-21T15:42:09;26.60;68.30
14409;DHT22;7289;50.706;4.992;2022-08-21T15:44:39;26.50;68.40
14409;DHT22;7289;50.706;4.992;2022-08-21T15:47:12;26.30;69.00
14409;DHT22;7289;50.706;4.992;2022-08-21T15:49:40;26.40;69.20
14409;DHT22;7289;50.706;4.992;2022-08-21T15:52:12;26.30;68.70
14409;DHT22;7289;50.706;4.992;2022-08-21T15:54:40;26.40;68.90
14409;DHT22;7289;50.706;4.992;2022-08-21T15:57:13;26.20;69.00
14409;DHT22;7289;50.706;4.992;2022-08-21T15:59:44;26.10;69.00
14409;DHT22;7289;50.706;4.992;2022-08-21T16:02:14;26.00;69.00
14409;DHT22;7289;50.706;4.992;2022-08-21T16:04:43;25.90;70.00
14409;DHT22;7289;50.706;4.992;2022-08-21T16:07:11;25.70;70.80
14409;DHT22;7289;50.706;4.992;2022-08-21T16:09:40;25.70;71.50
14409;DHT22;7289;50.706;4.992;2022-08-21T16:12:12;25.80;71.60
14409;DHT22;7289;50.706;4.992;2022-08-21T16:14:41;25.90;70.90